createdAt,value
2022-08-17T00:01:00.239Z,3.47
2022-08-17T00:03:34.161Z,3.58
2022-08-17T00:06:02.042Z,3.22
2022-08-17T00:08:34.020Z,3.42
2022-08-17T00:11:01.150Z,3.13
2022-08-17T00:13:29.992Z,3.70
2022-08-17T00:15:59.863Z,3.40
2022-08-17T00:19:06.928Z,3.17
2022-08-17T00:21:16.377Z,3.33
2022-08-17T00:23:52.023Z,3.60
2022-08-17T00:26:44.228Z,3.55
2022-08-17T00:29:07.029Z,3.38
2022-08-17T00:31:35.557Z,3.35
2022-08-17T00:34:02.897Z,4.00
2022-08-17T00:36:29.638Z,3.78
2022-08-17T00:38:56.342Z,3.45
2022-08-17T00:41:25.863Z,3.90
2022-08-17T00:43:58.619Z,3.97
2022-08-17T00:46:30.060Z,3.47
2022-08-17T00:48:57.149Z,3.45
2022-08-17T00:51:44.023Z,3.60
2022-08-17T00:54:10.795Z,3.63
2022-08-17T00:56:48.921Z,3.70
2022-08-17T00:59:19.423Z,3.60
2022-08-17T01:01:46.515Z,3.50
2022-08-17T01:04:13.824Z,3.53
2022-08-17T01:06:41.707Z,4.32
2022-08-17T01:09:08.773Z,3.80
2022-08-17T01:11:37.205Z,3.60
2022-08-17T01:14:03.915Z,3.85
2022-08-17T01:16:31.611Z,3.90
2022-08-17T01:19:05.095Z,4.57
2022-08-17T01:21:47.647Z,4.15
2022-08-17T01:24:14.489Z,4.20
2022-08-17T01:26:42.167Z,3.72
2022-08-17T01:29:08.872Z,3.83
2022-08-17T01:31:39.339Z,3.95
2022-08-17T01:34:07.875Z,3.97
2022-08-17T01:36:35.288Z,4.15
2022-08-17T01:39:02.157Z,4.03
2022-08-17T01:41:29.076Z,3.78
2022-08-17T01:44:01.360Z,3.65
2022-08-17T01:46:30.967Z,3.80
2022-08-17T01:48:57.994Z,4.10
2022-08-17T01:51:26.265Z,3.90
2022-08-17T01:53:54.815Z,4.20
2022-08-17T01:56:22.364Z,4.53
2022-08-17T01:58:49.009Z,3.95
2022-08-17T02:01:20.000Z,4.10
2022-08-17T02:03:53.492Z,3.80
2022-08-17T02:06:29.023Z,4.20
2022-08-17T02:09:02.772Z,3.92
2022-08-17T02:11:31.079Z,3.72
2022-08-17T02:14:03.503Z,3.95
2022-08-17T02:16:37.776Z,3.97
2022-08-17T02:19:06.318Z,3.80
2022-08-17T02:21:32.990Z,3.88
2022-08-17T02:24:00.186Z,3.92
2022-08-17T02:26:26.914Z,4.15
2022-08-17T02:28:53.712Z,3.75
2022-08-17T02:31:21.305Z,3.97
2022-08-17T02:34:00.459Z,3.70
2022-08-17T02:36:32.428Z,3.80
2022-08-17T02:39:00.323Z,4.30
2022-08-17T02:41:26.930Z,3.63
2022-08-17T02:43:53.663Z,3.45
2022-08-17T02:46:20.344Z,3.30
2022-08-17T02:48:48.479Z,3.40
2022-08-17T02:51:15.161Z,3.38
2022-08-17T02:53:41.799Z,3.70
2022-08-17T02:56:08.491Z,3.42
2022-08-17T02:58:36.171Z,3.38
2022-08-17T03:01:07.004Z,3.47
2022-08-17T03:03:33.797Z,3.40
2022-08-17T03:06:00.453Z,3.78
2022-08-17T03:08:27.293Z,4.00
2022-08-17T03:10:54.024Z,4.15
2022-08-17T03:13:20.724Z,3.60
2022-08-17T03:15:47.986Z,3.53
2022-08-17T03:18:25.001Z,3.70
2022-08-17T03:20:57.195Z,3.88
2022-08-17T03:23:25.449Z,3.65
2022-08-17T03:25:53.620Z,3.47
2022-08-17T03:28:21.189Z,3.53
2022-08-17T03:30:47.826Z,3.80
2022-08-17T03:33:14.769Z,3.58
2022-08-17T03:35:41.762Z,3.30
2022-08-17T03:38:11.940Z,3.67
2022-08-17T03:40:56.436Z,3.10
2022-08-17T03:43:27.023Z,3.13
2022-08-17T03:46:28.123Z,3.30
2022-08-17T03:49:17.524Z,3.03
2022-08-17T03:52:02.915Z,3.50
2022-08-17T03:55:08.046Z,3.15
2022-08-17T03:57:34.671Z,3.20
2022-08-17T04:00:01.284Z,3.15
2022-08-17T04:02:32.578Z,3.40
2022-08-17T04:04:59.826Z,3.63
2022-08-17T04:07:28.192Z,3.55
2022-08-17T04:09:55.302Z,3.35
2022-08-17T04:12:23.094Z,3.47
2022-08-17T04:14:51.752Z,3.85
2022-08-17T04:17:21.708Z,4.35
2022-08-17T04:19:48.394Z,3.70
2022-08-17T04:22:32.283Z,4.50
2022-08-17T04:25:13.859Z,3.78
2022-08-17T04:27:40.480Z,4.22
2022-08-17T04:30:07.518Z,3.95
2022-08-17T04:33:10.824Z,4.05
2022-08-17T04:35:36.790Z,3.67
2022-08-17T04:38:03.805Z,4.15
2022-08-17T04:40:49.072Z,3.63
2022-08-17T04:43:18.668Z,3.95
2022-08-17T04:45:55.004Z,3.60
2022-08-17T04:48:24.071Z,3.63
2022-08-17T04:51:02.981Z,3.70
2022-08-17T04:53:29.724Z,3.50
2022-08-17T04:55:58.821Z,3.70
2022-08-17T04:58:25.415Z,4.00
2022-08-17T05:00:52.148Z,3.75
2022-08-17T05:03:18.868Z,3.30
2022-08-17T05:05:49.845Z,3.70
2022-08-17T05:08:18.113Z,4.10
2022-08-17T05:10:45.553Z,4.07
2022-08-17T05:13:20.178Z,3.55
2022-08-17T05:15:48.083Z,3.28
2022-08-17T05:18:15.918Z,3.80
2022-08-17T05:20:42.688Z,3.40
2022-08-17T05:23:11.265Z,3.28
2022-08-17T05:25:42.892Z,3.22
2022-08-17T05:28:14.812Z,3.97
2022-08-17T05:30:43.189Z,3.50
2022-08-17T05:33:11.131Z,3.17
2022-08-17T05:35:39.563Z,3.33
2022-08-17T05:38:08.010Z,3.83
2022-08-17T05:40:36.327Z,3.72
2022-08-17T05:43:07.627Z,3.28
2022-08-17T05:45:54.545Z,3.35
2022-08-17T05:48:22.136Z,3.63
2022-08-17T05:51:23.498Z,3.17
2022-08-17T05:53:50.121Z,3.38
2022-08-17T05:56:31.815Z,3.88
2022-08-17T05:58:58.465Z,3.45
2022-08-17T06:01:25.218Z,3.40
2022-08-17T06:03:54.901Z,3.25
2022-08-17T06:07:01.615Z,3.20
2022-08-17T06:09:33.474Z,3.70
2022-08-17T06:12:19.818Z,3.38
2022-08-17T06:14:49.720Z,3.13
2022-08-17T06:17:18.386Z,3.40
2022-08-17T06:19:54.688Z,3.55
2022-08-17T06:22:26.425Z,3.72
2022-08-17T06:25:19.368Z,3.42
2022-08-17T06:27:53.587Z,3.53
2022-08-17T06:30:22.386Z,3.38
2022-08-17T06:32:49.909Z,4.05
2022-08-17T06:35:19.456Z,3.25
2022-08-17T06:37:49.579Z,3.75
2022-08-17T06:40:35.057Z,4.30
2022-08-17T06:43:05.695Z,4.00
2022-08-17T06:45:39.337Z,4.20
2022-08-17T06:48:09.096Z,3.80
2022-08-17T06:50:38.266Z,3.85
2022-08-17T06:53:19.765Z,4.07
2022-08-17T06:55:55.928Z,4.53
2022-08-17T06:58:23.706Z,4.32
2022-08-17T07:00:59.567Z,3.90
2022-08-17T07:03:37.635Z,4.38
2022-08-17T07:06:22.109Z,4.40
2022-08-17T07:08:51.892Z,3.95
2022-08-17T07:11:36.151Z,3.80
2022-08-17T07:14:18.958Z,3.83
2022-08-17T07:16:47.812Z,4.75
2022-08-17T07:19:16.797Z,4.78
2022-08-17T07:21:43.495Z,4.85
2022-08-17T07:24:29.519Z,4.05
2022-08-17T07:27:11.386Z,4.80
2022-08-17T07:29:43.979Z,4.10
2022-08-17T07:32:11.825Z,4.45
2022-08-17T07:34:58.831Z,4.35
2022-08-17T07:37:25.551Z,4.30
2022-08-17T07:39:58.899Z,4.00
2022-08-17T07:42:41.854Z,4.00
2022-08-17T07:45:33.946Z,4.15
2022-08-17T07:48:18.977Z,4.25
2022-08-17T07:50:47.562Z,4.10
2022-08-17T07:53:23.299Z,3.67
2022-08-17T07:55:51.018Z,4.43
2022-08-17T07:58:19.150Z,4.20
2022-08-17T08:00:46.468Z,3.80
2022-08-17T08:03:13.498Z,4.20
2022-08-17T08:06:09.476Z,4.30
2022-08-17T08:08:42.945Z,3.80
2022-08-17T08:11:11.574Z,3.53
2022-08-17T08:13:42.562Z,4.20
2022-08-17T08:16:15.184Z,4.07
2022-08-17T08:18:54.843Z,3.80
2022-08-17T08:21:59.133Z,4.13
2022-08-17T08:24:44.389Z,3.72
2022-08-17T08:27:27.127Z,3.90
2022-08-17T08:30:06.620Z,4.07
2022-08-17T08:32:48.005Z,4.03
2022-08-17T08:35:16.854Z,4.00
2022-08-17T08:37:47.460Z,4.22
2022-08-17T08:40:32.938Z,3.80
2022-08-17T08:43:17.648Z,4.55
2022-08-17T08:45:56.545Z,4.10
2022-08-17T08:48:55.666Z,4.25
2022-08-17T08:51:55.387Z,3.78
2022-08-17T08:54:26.980Z,4.22
2022-08-17T08:59:58.171Z,3.88
2022-08-17T09:02:28.913Z,4.18
2022-08-17T09:05:15.521Z,4.40
2022-08-17T09:07:57.379Z,3.75
2022-08-17T09:10:25.465Z,3.38
2022-08-17T09:13:10.189Z,3.90
2022-08-17T09:15:47.940Z,3.92
2022-08-17T09:18:59.844Z,3.97
2022-08-17T09:21:13.825Z,4.00
2022-08-17T09:23:46.390Z,3.25
2022-08-17T09:26:24.241Z,3.70
2022-08-17T09:28:52.537Z,3.70
2022-08-17T09:31:21.324Z,4.32
2022-08-17T09:33:48.727Z,3.13
2022-08-17T09:36:35.601Z,3.22
2022-08-17T09:39:22.517Z,3.50
2022-08-17T09:41:55.723Z,3.47
2022-08-17T09:44:38.494Z,3.35
2022-08-17T09:47:11.388Z,3.60
2022-08-17T09:49:43.218Z,3.15
2022-08-17T09:52:27.483Z,3.10
2022-08-17T09:54:55.610Z,3.25
2022-08-17T09:57:37.607Z,3.15
2022-08-17T10:00:16.584Z,3.50
2022-08-17T10:03:08.409Z,3.08
2022-08-17T10:05:41.378Z,2.85
2022-08-17T10:08:21.933Z,2.97
2022-08-17T10:11:07.487Z,2.90
2022-08-17T10:13:53.345Z,3.30
2022-08-17T10:16:26.763Z,3.25
2022-08-17T10:19:02.797Z,3.15
2022-08-17T10:21:49.648Z,3.03
2022-08-17T10:25:21.777Z,3.47
2022-08-17T10:27:52.328Z,3.22
2022-08-17T10:30:21.089Z,3.00
2022-08-17T10:32:50.745Z,2.88
2022-08-17T10:35:29.753Z,2.78
2022-08-17T10:37:56.436Z,3.63
2022-08-17T10:40:31.104Z,2.95
2022-08-17T10:43:10.487Z,3.25
2022-08-17T10:45:45.169Z,3.40
2022-08-17T10:48:14.171Z,2.90
2022-08-17T10:50:47.536Z,3.10
2022-08-17T10:53:40.726Z,2.90
2022-08-17T10:56:13.697Z,3.30
2022-08-17T10:58:49.694Z,3.20
2022-08-17T11:01:17.108Z,3.20
2022-08-17T11:03:55.009Z,3.17
2022-08-17T11:06:42.555Z,2.67
2022-08-17T11:09:19.928Z,3.25
2022-08-17T11:12:06.652Z,3.05
2022-08-17T11:14:39.916Z,2.83
2022-08-17T11:17:06.545Z,2.72
2022-08-17T11:19:52.028Z,2.95
2022-08-17T11:22:21.658Z,2.92
2022-08-17T11:24:51.291Z,3.13
2022-08-17T11:27:29.851Z,3.20
2022-08-17T11:30:02.107Z,2.90
2022-08-17T11:32:37.336Z,2.90
2022-08-17T11:35:12.020Z,2.90
2022-08-17T11:37:45.971Z,2.92
2022-08-17T11:40:18.093Z,3.00
2022-08-17T11:43:13.515Z,2.63
2022-08-17T11:45:46.376Z,2.75
2022-08-17T11:48:38.861Z,3.10
2022-08-17T11:51:47.182Z,3.00
2022-08-17T11:54:34.386Z,2.88
2022-08-17T11:57:21.628Z,2.85
2022-08-17T11:59:48.318Z,3.00
2022-08-17T12:02:38.794Z,3.10
2022-08-17T12:05:14.498Z,3.20
2022-08-17T12:08:01.421Z,2.83
2022-08-17T12:10:32.551Z,2.60
2022-08-17T12:13:02.280Z,2.40
2022-08-17T12:15:30.667Z,2.35
2022-08-17T12:17:57.819Z,2.40
2022-08-17T12:20:38.580Z,2.90
2022-08-17T12:23:44.350Z,2.90
2022-08-17T12:26:13.963Z,2.38
2022-08-17T12:28:44.307Z,2.45
2022-08-17T12:31:17.854Z,2.60
2022-08-17T12:33:46.129Z,2.53
2022-08-17T12:36:15.093Z,2.28
2022-08-17T12:38:49.086Z,2.47
2022-08-17T12:41:29.140Z,2.95
2022-08-17T12:44:03.467Z,2.55
2022-08-17T12:46:33.552Z,2.65
2022-08-17T12:49:13.918Z,2.30
2022-08-17T12:51:45.027Z,2.50
2022-08-17T12:54:21.738Z,2.50
2022-08-17T12:56:48.432Z,2.70
2022-08-17T12:59:15.622Z,2.40
2022-08-17T13:01:56.718Z,2.53
2022-08-17T13:04:24.251Z,2.40
2022-08-17T13:06:59.646Z,2.25
2022-08-17T13:09:40.081Z,2.70
2022-08-17T13:12:07.897Z,2.50
2022-08-17T13:14:35.368Z,2.25
2022-08-17T13:17:02.523Z,2.58
2022-08-17T13:19:40.284Z,2.45
2022-08-17T13:22:10.249Z,2.58
2022-08-17T13:24:37.996Z,3.22
2022-08-17T13:27:08.062Z,2.47
2022-08-17T13:29:40.326Z,2.78
2022-08-17T13:32:11.607Z,2.78
2022-08-17T13:35:14.910Z,3.15
2022-08-17T13:37:38.345Z,2.80
2022-08-17T13:40:13.159Z,2.65
2022-08-17T13:42:52.296Z,2.95
2022-08-17T13:45:36.743Z,2.70
2022-08-17T13:48:08.882Z,3.20
2022-08-17T13:51:00.558Z,3.15
2022-08-17T13:53:27.153Z,3.00
2022-08-17T13:55:55.348Z,2.78
2022-08-17T13:58:30.647Z,2.95
2022-08-17T14:00:57.741Z,3.05
2022-08-17T14:03:24.785Z,2.53
2022-08-17T14:05:52.361Z,2.75
2022-08-17T14:08:19.887Z,2.67
2022-08-17T14:10:49.970Z,2.70
2022-08-17T14:13:16.578Z,2.75
2022-08-17T14:15:53.907Z,2.50
2022-08-17T14:18:35.489Z,2.40
2022-08-17T14:21:09.744Z,2.50
2022-08-17T14:23:36.942Z,2.55
2022-08-17T14:26:03.668Z,2.80
2022-08-17T14:28:30.322Z,2.50
2022-08-17T14:31:00.359Z,2.60
2022-08-17T14:33:27.851Z,2.67
2022-08-17T14:35:54.825Z,2.80
2022-08-17T14:38:21.546Z,2.65
2022-08-17T14:40:48.249Z,2.95
2022-08-17T14:43:15.943Z,2.70
2022-08-17T14:45:43.144Z,2.83
2022-08-17T14:48:10.379Z,2.70
2022-08-17T14:50:40.637Z,2.50
2022-08-17T14:53:09.955Z,2.70
2022-08-17T14:55:39.847Z,2.65
2022-08-17T14:58:07.448Z,2.72
2022-08-17T15:00:34.552Z,2.83
2022-08-17T15:03:01.581Z,2.55
2022-08-17T15:05:33.744Z,2.70
2022-08-17T15:08:01.314Z,2.92
2022-08-17T15:10:29.258Z,3.15
2022-08-17T15:12:56.293Z,2.63
2022-08-17T15:15:23.193Z,2.90
2022-08-17T15:17:51.178Z,2.88
2022-08-17T15:20:19.475Z,2.55
2022-08-17T15:22:49.640Z,2.90
2022-08-17T15:25:17.312Z,3.25
2022-08-17T15:27:44.112Z,2.38
2022-08-17T15:30:11.764Z,2.83
2022-08-17T15:32:39.697Z,3.30
2022-08-17T15:35:07.541Z,2.60
2022-08-17T15:37:34.587Z,2.50
2022-08-17T15:40:01.410Z,2.53
2022-08-17T15:42:29.250Z,3.08
2022-08-17T15:44:56.150Z,2.72
2022-08-17T15:47:23.172Z,3.00
2022-08-17T15:49:50.786Z,2.55
2022-08-17T15:52:24.344Z,2.78
2022-08-17T15:54:55.529Z,2.90
2022-08-17T15:57:24.072Z,2.72
2022-08-17T15:59:54.654Z,3.92
2022-08-17T16:03:46.050Z,2.85
2022-08-17T16:05:14.466Z,2.88
2022-08-17T16:07:44.268Z,3.10
2022-08-17T16:10:18.219Z,2.75
2022-08-17T16:12:49.890Z,3.08
2022-08-17T16:15:17.058Z,2.75
2022-08-17T16:17:43.774Z,2.80
2022-08-17T16:20:20.262Z,2.92
2022-08-17T16:22:49.508Z,2.90
2022-08-17T16:25:21.353Z,2.60
2022-08-17T16:27:53.373Z,2.72
2022-08-17T16:30:21.583Z,3.00
2022-08-17T16:32:49.595Z,2.92
2022-08-17T16:35:17.000Z,3.28
2022-08-17T16:37:46.870Z,2.92
2022-08-17T16:40:14.480Z,3.33
2022-08-17T16:42:43.234Z,2.85
2022-08-17T16:45:11.827Z,3.22
2022-08-17T16:47:39.104Z,3.13
2022-08-17T16:50:07.111Z,2.88
2022-08-17T16:52:33.971Z,3.10
2022-08-17T16:55:01.668Z,3.00
2022-08-17T16:57:29.785Z,3.10
2022-08-17T16:59:56.664Z,3.40
2022-08-17T17:02:26.180Z,3.10
2022-08-17T17:05:24.447Z,2.80
2022-08-17T17:07:55.545Z,2.95
2022-08-17T17:10:24.189Z,2.80
2022-08-17T17:13:02.870Z,3.22
2022-08-17T17:15:41.452Z,2.85
2022-08-17T17:18:11.571Z,3.28
2022-08-17T17:20:42.550Z,3.40
2022-08-17T17:23:11.692Z,2.72
2022-08-17T17:25:44.526Z,2.72
2022-08-17T17:28:24.834Z,2.72
2022-08-17T17:31:04.443Z,2.80
2022-08-17T17:33:40.505Z,3.22
2022-08-17T17:36:11.179Z,3.00
2022-08-17T17:38:40.574Z,3.20
2022-08-17T17:41:11.896Z,2.88
2022-08-17T17:43:39.782Z,2.80
2022-08-17T17:46:26.843Z,2.90
2022-08-17T17:48:55.209Z,2.95
2022-08-17T17:52:06.719Z,3.42
2022-08-17T17:54:24.117Z,3.20
2022-08-17T17:56:58.870Z,2.67
2022-08-17T17:59:32.956Z,2.78
2022-08-17T18:02:08.745Z,3.00
2022-08-17T18:04:51.081Z,2.80
2022-08-17T18:07:22.929Z,3.92
2022-08-17T18:09:51.818Z,3.03
2022-08-17T18:12:27.278Z,3.30
2022-08-17T18:15:00.262Z,2.80
2022-08-17T18:17:29.640Z,3.10
2022-08-17T18:19:56.216Z,2.72
2022-08-17T18:22:23.263Z,2.63
2022-08-17T18:24:55.923Z,2.60
2022-08-17T18:27:31.056Z,3.03
2022-08-17T18:29:59.160Z,2.78
2022-08-17T18:32:25.827Z,2.90
2022-08-17T18:34:55.490Z,2.60
2022-08-17T18:37:41.173Z,2.67
2022-08-17T18:40:17.265Z,3.08
2022-08-17T18:42:45.852Z,3.05
2022-08-17T18:45:13.292Z,2.80
2022-08-17T18:47:57.937Z,2.83
2022-08-17T18:50:34.172Z,2.60
2022-08-17T18:53:21.191Z,2.78
2022-08-17T18:56:13.725Z,2.83
2022-08-17T18:58:40.394Z,2.63
2022-08-17T19:01:17.991Z,2.60
2022-08-17T19:03:45.969Z,3.30
2022-08-17T19:06:15.749Z,3.03
2022-08-17T19:08:42.751Z,2.50
2022-08-17T19:11:30.121Z,2.50
2022-08-17T19:14:12.029Z,3.22
2022-08-17T19:16:38.751Z,2.80
2022-08-17T19:19:14.381Z,3.08
2022-08-17T19:21:53.066Z,2.83
2022-08-17T19:24:21.333Z,2.50
2022-08-17T19:26:55.927Z,2.90
2022-08-17T19:29:29.439Z,2.63
2022-08-17T19:31:58.977Z,3.25
2022-08-17T19:34:33.350Z,2.60
2022-08-17T19:37:12.588Z,2.63
2022-08-17T19:39:55.602Z,2.63
2022-08-17T19:42:22.364Z,2.97
2022-08-17T19:44:48.992Z,4.65
2022-08-17T19:47:53.828Z,3.17
2022-08-17T19:50:28.263Z,3.20
2022-08-17T19:53:02.572Z,2.88
2022-08-17T19:55:51.006Z,2.88
2022-08-17T19:58:36.605Z,2.88
2022-08-17T20:01:05.455Z,3.00
2022-08-17T20:03:35.310Z,2.83
2022-08-17T20:06:13.390Z,3.08
2022-08-17T20:08:45.070Z,3.05
2022-08-17T20:11:14.803Z,2.65
2022-08-17T20:13:52.295Z,3.10
2022-08-17T20:16:19.576Z,2.95
2022-08-17T20:18:47.463Z,3.28
2022-08-17T20:21:33.153Z,2.70
2022-08-17T20:24:04.623Z,3.05
2022-08-17T20:26:55.383Z,2.85
2022-08-17T20:29:48.745Z,2.95
2022-08-17T20:32:18.784Z,3.20
2022-08-17T20:34:46.742Z,3.30
2022-08-17T20:37:13.407Z,3.03
2022-08-17T20:39:45.643Z,2.78
2022-08-17T20:42:15.101Z,2.95
2022-08-17T20:44:42.778Z,3.10
2022-08-17T20:47:27.048Z,2.83
2022-08-17T20:50:23.473Z,3.05
2022-08-17T20:52:53.148Z,3.00
2022-08-17T20:55:51.852Z,3.53
2022-08-17T20:58:21.249Z,3.08
2022-08-17T21:01:09.517Z,2.92
2022-08-17T21:03:51.341Z,3.00
2022-08-17T21:06:20.675Z,2.65
2022-08-17T21:08:53.429Z,2.78
2022-08-17T21:11:57.288Z,2.63
2022-08-17T21:14:17.924Z,2.92
2022-08-17T21:16:51.039Z,3.20
2022-08-17T21:19:26.251Z,3.10
2022-08-17T21:22:09.365Z,3.00
2022-08-17T21:24:47.976Z,3.00
2022-08-17T21:27:23.635Z,2.72
2022-08-17T21:30:12.566Z,2.90
2022-08-17T21:32:41.918Z,2.90
2022-08-17T21:35:12.389Z,2.75
2022-08-17T21:37:42.087Z,2.70
2022-08-17T21:40:18.149Z,2.67
2022-08-17T21:42:50.522Z,2.55
2022-08-17T21:45:32.002Z,3.03
2022-08-17T21:48:07.799Z,3.00
2022-08-17T21:50:35.510Z,2.97
2022-08-17T21:53:02.844Z,2.75
2022-08-17T21:55:31.030Z,2.65
2022-08-17T21:58:14.495Z,2.78
2022-08-17T22:00:44.517Z,3.00
2022-08-17T22:03:22.024Z,2.45
2022-08-17T22:05:50.385Z,3.33
2022-08-17T22:08:24.667Z,2.67
2022-08-17T22:10:59.347Z,2.90
2022-08-17T22:13:29.372Z,2.85
2022-08-17T22:16:15.669Z,2.47
2022-08-17T22:18:53.709Z,2.65
2022-08-17T22:21:22.746Z,2.67
2022-08-17T22:24:05.568Z,2.83
2022-08-17T22:26:51.146Z,2.90
2022-08-17T22:29:36.423Z,2.85
2022-08-17T22:32:03.567Z,3.05
2022-08-17T22:34:30.190Z,2.97
2022-08-17T22:37:15.441Z,2.53
2022-08-17T22:39:42.169Z,2.95
2022-08-17T22:42:13.734Z,3.08
2022-08-17T22:44:48.626Z,3.03
2022-08-17T22:47:16.273Z,2.95
2022-08-17T22:49:53.236Z,3.60
2022-08-17T22:52:35.733Z,3.20
2022-08-17T22:55:23.262Z,3.25
2022-08-17T22:58:08.442Z,2.95
2022-08-17T23:00:38.192Z,2.80
2022-08-17T23:03:09.112Z,3.00
2022-08-17T23:05:36.630Z,2.97
2022-08-17T23:08:03.719Z,3.28
2022-08-17T23:10:30.439Z,3.05
2022-08-17T23:13:00.381Z,3.15
2022-08-17T23:15:33.176Z,3.00
2022-08-17T23:18:04.849Z,3.25
2022-08-17T23:20:33.522Z,3.25
2022-08-17T23:23:00.560Z,3.40
2022-08-17T23:25:29.140Z,3.30
2022-08-17T23:27:57.506Z,3.60
2022-08-17T23:30:25.613Z,3.35
2022-08-17T23:32:53.619Z,3.17
2022-08-17T23:35:20.915Z,3.33
2022-08-17T23:38:07.883Z,3.10
2022-08-17T23:40:34.624Z,3.58
2022-08-17T23:43:04.534Z,2.80
2022-08-17T23:45:38.823Z,2.97
2022-08-17T23:48:07.844Z,3.30
2022-08-17T23:50:35.469Z,3.30
2022-08-17T23:53:03.153Z,2.90
2022-08-17T23:55:34.470Z,3.20
2022-08-17T23:58:04.622Z,3.17
